sensor_id;sensor_type;location;lat;lon;timestamp;pressure;altitude;pressure_sealevel;temperature;humidity
21904;BME280;11116;51.554;7.812;2022-09-09T00:00:54;100013.22;;;16.62;100.00
21904;BME280;11116;51.554;7.812;2022-09-09T00:03:25;100001.44;;;16.57;100.00
21904;BME280;11116;51.554;7.812;2022-09-09T00:05:59;100002.44;;;16.56;100.00
21904;BME280;11116;51.554;7.812;2022-09-09T00:08:42;99992.09;;;16.53;100.00
21904;BME280;11116;51.554;7.812;2022-09-09T00:11:15;99989.22;;;16.62;100.00
21904;BME280;11116;51.554;7.812;2022-09-09T00:13:48;99994.91;;;16.59;100.00
21904;BME280;11116;51.554;7.812;2022-09-09T00:16:21;99996.13;;;16.49;100.00
21904;BME280;11116;51.554;7.812;2022-09-09T00:18:56;99993.72;;;16.39;100.00
21904;BME280;11116;51.554;7.812;2022-09-09T00:21:31;99992.16;;;16.30;100.00
21904;BME280;11116;51.554;7.812;2022-09-09T00:24:04;99984.72;;;16.40;100.00
21904;BME280;11116;51.554;7.812;2022-09-09T00:26:38;99989.81;;;16.12;100.00
21904;BME280;11116;51.554;7.812;2022-09-09T00:29:17;99995.63;;;15.93;100.00
21904;BME280;11116;51.554;7.812;2022-09-09T00:31:48;99996.84;;;15.82;100.00
21904;BME280;11116;51.554;7.812;2022-09-09T00:34:19;99996.41;;;15.71;100.00
21904;BME280;11116;51.554;7.812;2022-09-09T00:36:48;99995.50;;;15.64;100.00
21904;BME280;11116;51.554;7.812;2022-09-09T00:39:23;99986.47;;;15.65;100.00
21904;BME280;11116;51.554;7.812;2022-09-09T00:42:02;99978.06;;;15.53;100.00
21904;BME280;11116;51.554;7.812;2022-09-09T00:44:37;99979.88;;;15.53;100.00
21904;BME280;11116;51.554;7.812;2022-09-09T00:47:12;99986.41;;;15.50;100.00
21904;BME280;11116;51.554;7.812;2022-09-09T00:49:53;99982.44;;;15.38;100.00
21904;BME280;11116;51.554;7.812;2022-09-09T00:52:34;99982.69;;;15.28;100.00
21904;BME280;11116;51.554;7.812;2022-09-09T00:55:07;99983.84;;;15.26;100.00
21904;BME280;11116;51.554;7.812;2022-09-09T00:57:38;99980.50;;;15.32;100.00
21904;BME280;11116;51.554;7.812;2022-09-09T01:00:21;99977.00;;;15.32;100.00
21904;BME280;11116;51.554;7.812;2022-09-09T01:02:55;99980.72;;;15.53;100.00
21904;BME280;11116;51.554;7.812;2022-09-09T01:05:28;99976.47;;;15.36;100.00
21904;BME280;11116;51.554;7.812;2022-09-09T01:07:57;99978.19;;;15.29;100.00
21904;BME280;11116;51.554;7.812;2022-09-09T01:10:30;99974.19;;;15.25;100.00
21904;BME280;11116;51.554;7.812;2022-09-09T01:13:08;99973.97;;;15.04;100.00
21904;BME280;11116;51.554;7.812;2022-09-09T01:15:41;99977.28;;;15.06;100.00
21904;BME280;11116;51.554;7.812;2022-09-09T01:18:15;99978.78;;;15.08;100.00
21904;BME280;11116;51.554;7.812;2022-09-09T01:20:49;99980.25;;;15.11;100.00
21904;BME280;11116;51.554;7.812;2022-09-09T01:23:34;99975.28;;;15.39;100.00
21904;BME280;11116;51.554;7.812;2022-09-09T01:26:25;99970.50;;;15.65;100.00
21904;BME280;11116;51.554;7.812;2022-09-09T01:28:55;99965.66;;;15.68;100.00
21904;BME280;11116;51.554;7.812;2022-09-09T01:31:34;99963.41;;;15.80;100.00
21904;BME280;11116;51.554;7.812;2022-09-09T01:34:10;99962.47;;;15.73;100.00
21904;BME280;11116;51.554;7.812;2022-09-09T01:36:42;99953.72;;;15.87;100.00
21904;BME280;11116;51.554;7.812;2022-09-09T01:39:11;99959.69;;;15.89;100.00
21904;BME280;11116;51.554;7.812;2022-09-09T01:41:41;99957.72;;;16.06;100.00
21904;BME280;11116;51.554;7.812;2022-09-09T01:44:11;99957.38;;;15.86;100.00
21904;BME280;11116;51.554;7.812;2022-09-09T01:46:41;99957.44;;;16.01;100.00
21904;BME280;11116;51.554;7.812;2022-09-09T01:49:14;99956.06;;;15.82;100.00
21904;BME280;11116;51.554;7.812;2022-09-09T01:51:43;99959.56;;;15.82;100.00
21904;BME280;11116;51.554;7.812;2022-09-09T01:54:13;99965.25;;;15.79;100.00
21904;BME280;11116;51.554;7.812;2022-09-09T01:56:48;99961.75;;;15.79;100.00
21904;BME280;11116;51.554;7.812;2022-09-09T01:59:36;99961.78;;;15.94;100.00
21904;BME280;11116;51.554;7.812;2022-09-09T02:02:11;99961.22;;;15.83;100.00
21904;BME280;11116;51.554;7.812;2022-09-09T02:04:47;99955.78;;;15.77;100.00
21904;BME280;11116;51.554;7.812;2022-09-09T02:07:30;99958.34;;;15.93;100.00
21904;BME280;11116;51.554;7.812;2022-09-09T02:10:07;99960.94;;;15.78;100.00
21904;BME280;11116;51.554;7.812;2022-09-09T02:12:40;99965.94;;;15.73;100.00
21904;BME280;11116;51.554;7.812;2022-09-09T02:15:15;99955.41;;;16.03;100.00
21904;BME280;11116;51.554;7.812;2022-09-09T02:17:49;99953.88;;;15.86;100.00
21904;BME280;11116;51.554;7.812;2022-09-09T02:20:18;99961.03;;;15.85;100.00
21904;BME280;11116;51.554;7.812;2022-09-09T02:22:55;99959.38;;;16.07;100.00
21904;BME280;11116;51.554;7.812;2022-09-09T02:25:26;99961.59;;;16.18;100.00
21904;BME280;11116;51.554;7.812;2022-09-09T02:28:01;99967.41;;;16.21;100.00
21904;BME280;11116;51.554;7.812;2022-09-09T02:30:32;99964.09;;;15.97;100.00
21904;BME280;11116;51.554;7.812;2022-09-09T02:33:03;99969.03;;;16.08;100.00
21904;BME280;11116;51.554;7.812;2022-09-09T02:35:43;99963.47;;;15.95;100.00
21904;BME280;11116;51.554;7.812;2022-09-09T02:38:15;99971.66;;;15.93;100.00
21904;BME280;11116;51.554;7.812;2022-09-09T02:40:53;99964.41;;;16.02;100.00
21904;BME280;11116;51.554;7.812;2022-09-09T02:43:21;99972.44;;;15.94;100.00
21904;BME280;11116;51.554;7.812;2022-09-09T02:45:53;99969.97;;;16.15;100.00
21904;BME280;11116;51.554;7.812;2022-09-09T02:48:27;99971.34;;;15.88;100.00
21904;BME280;11116;51.554;7.812;2022-09-09T02:51:02;99971.34;;;15.88;100.00
21904;BME280;11116;51.554;7.812;2022-09-09T02:53:41;99969.22;;;15.83;100.00
21904;BME280;11116;51.554;7.812;2022-09-09T02:56:15;99975.59;;;15.97;100.00
21904;BME280;11116;51.554;7.812;2022-09-09T02:58:47;99978.97;;;15.91;100.00
21904;BME280;11116;51.554;7.812;2022-09-09T03:01:14;99975.53;;;15.82;100.00
21904;BME280;11116;51.554;7.812;2022-09-09T03:03:43;99974.78;;;15.74;100.00
21904;BME280;11116;51.554;7.812;2022-09-09T03:06:14;99976.56;;;15.81;100.00
21904;BME280;11116;51.554;7.812;2022-09-09T03:08:46;99977.25;;;15.98;100.00
21904;BME280;11116;51.554;7.812;2022-09-09T03:11:17;99977.72;;;15.79;100.00
21904;BME280;11116;51.554;7.812;2022-09-09T03:13:45;99977.31;;;15.67;100.00
21904;BME280;11116;51.554;7.812;2022-09-09T03:16:12;99987.66;;;15.62;100.00
21904;BME280;11116;51.554;7.812;2022-09-09T03:18:43;99979.94;;;15.75;100.00
21904;BME280;11116;51.554;7.812;2022-09-09T03:21:11;99987.38;;;15.57;100.00
21904;BME280;11116;51.554;7.812;2022-09-09T03:23:40;99979.03;;;15.60;100.00
21904;BME280;11116;51.554;7.812;2022-09-09T03:26:07;99984.50;;;15.67;100.00
21904;BME280;11116;51.554;7.812;2022-09-09T03:28:40;99979.59;;;15.48;100.00
21904;BME280;11116;51.554;7.812;2022-09-09T03:31:09;99983.22;;;15.55;100.00
21904;BME280;11116;51.554;7.812;2022-09-09T03:33:39;99987.31;;;15.65;100.00
21904;BME280;11116;51.554;7.812;2022-09-09T03:36:10;99980.72;;;15.53;100.00
21904;BME280;11116;51.554;7.812;2022-09-09T03:38:37;99988.50;;;15.86;100.00
21904;BME280;11116;51.554;7.812;2022-09-09T03:41:05;99980.22;;;15.58;100.00
21904;BME280;11116;51.554;7.812;2022-09-09T03:43:34;99978.38;;;15.58;100.00
21904;BME280;11116;51.554;7.812;2022-09-09T03:46:01;99980.22;;;15.58;100.00
21904;BME280;11116;51.554;7.812;2022-09-09T03:48:31;99971.47;;;15.72;100.00
21904;BME280;11116;51.554;7.812;2022-09-09T03:50:58;99969.44;;;15.74;100.00
21904;BME280;11116;51.554;7.812;2022-09-09T03:53:28;99959.44;;;15.53;100.00
21904;BME280;11116;51.554;7.812;2022-09-09T03:55:57;99959.13;;;15.48;100.00
21904;BME280;11116;51.554;7.812;2022-09-09T03:58:26;99967.75;;;15.50;100.00
21904;BME280;11116;51.554;7.812;2022-09-09T04:01:00;99958.16;;;15.49;100.00
21904;BME280;11116;51.554;7.812;2022-09-09T04:03:28;99960.63;;;15.51;100.00
21904;BME280;11116;51.554;7.812;2022-09-09T04:05:58;99967.31;;;15.47;100.00
21904;BME280;11116;51.554;7.812;2022-09-09T04:08:27;99971.59;;;15.48;100.00
21904;BME280;11116;51.554;7.812;2022-09-09T04:10:55;99957.13;;;15.50;100.00
21904;BME280;11116;51.554;7.812;2022-09-09T04:13:25;99964.09;;;15.51;100.00
21904;BME280;11116;51.554;7.812;2022-09-09T04:15:53;99968.88;;;15.64;100.00
21904;BME280;11116;51.554;7.812;2022-09-09T04:18:21;99963.63;;;15.70;100.00
21904;BME280;11116;51.554;7.812;2022-09-09T04:20:48;99960.88;;;15.64;100.00
21904;BME280;11116;51.554;7.812;2022-09-09T04:23:20;99957.78;;;15.75;100.00
21904;BME280;11116;51.554;7.812;2022-09-09T04:25:48;99958.56;;;15.83;100.00
21904;BME280;11116;51.554;7.812;2022-09-09T04:28:17;99963.63;;;15.70;100.00
21904;BME280;11116;51.554;7.812;2022-09-09T04:30:45;99967.97;;;15.71;100.00
21904;BME280;11116;51.554;7.812;2022-09-09T04:33:13;99974.78;;;15.74;100.00
21904;BME280;11116;51.554;7.812;2022-09-09T04:35:44;99972.88;;;15.60;100.00
21904;BME280;11116;51.554;7.812;2022-09-09T04:38:12;99971.81;;;15.69;100.00
21904;BME280;11116;51.554;7.812;2022-09-09T04:40:42;99973.28;;;15.94;100.00
21904;BME280;11116;51.554;7.812;2022-09-09T04:43:09;99983.09;;;15.94;100.00
21904;BME280;11116;51.554;7.812;2022-09-09T04:45:36;99978.47;;;15.73;100.00
21904;BME280;11116;51.554;7.812;2022-09-09T04:48:06;99981.28;;;15.71;100.00
21904;BME280;11116;51.554;7.812;2022-09-09T04:50:33;99987.16;;;15.67;100.00
21904;BME280;11116;51.554;7.812;2022-09-09T04:53:00;99982.97;;;15.64;100.00
21904;BME280;11116;51.554;7.812;2022-09-09T04:55:28;99975.47;;;15.68;100.00
21904;BME280;11116;51.554;7.812;2022-09-09T04:57:57;99983.66;;;15.66;100.00
21904;BME280;11116;51.554;7.812;2022-09-09T05:00:24;99981.06;;;15.81;100.00
21904;BME280;11116;51.554;7.812;2022-09-09T05:02:51;99977.84;;;15.86;100.00
21904;BME280;11116;51.554;7.812;2022-09-09T05:05:18;99975.19;;;15.86;100.00
21904;BME280;11116;51.554;7.812;2022-09-09T05:07:47;99979.66;;;15.93;100.00
21904;BME280;11116;51.554;7.812;2022-09-09T05:10:15;99978.97;;;15.91;100.00
21904;BME280;11116;51.554;7.812;2022-09-09T05:12:52;99983.59;;;15.97;100.00
21904;BME280;11116;51.554;7.812;2022-09-09T05:15:21;99988.63;;;15.92;100.00
21904;BME280;11116;51.554;7.812;2022-09-09T05:17:48;99978.56;;;15.79;100.00
21904;BME280;11116;51.554;7.812;2022-09-09T05:20:16;99970.91;;;15.99;100.00
21904;BME280;11116;51.554;7.812;2022-09-09T05:22:44;99979.28;;;15.96;100.00
21904;BME280;11116;51.554;7.812;2022-09-09T05:25:10;99976.22;;;15.85;100.00
21904;BME280;11116;51.554;7.812;2022-09-09T05:27:38;99979.22;;;15.81;100.00
21904;BME280;11116;51.554;7.812;2022-09-09T05:30:06;99980.28;;;15.95;100.00
21904;BME280;11116;51.554;7.812;2022-09-09T05:32:35;99984.84;;;15.87;100.00
21904;BME280;11116;51.554;7.812;2022-09-09T05:35:03;99977.34;;;15.90;100.00
21904;BME280;11116;51.554;7.812;2022-09-09T05:37:31;99983.47;;;15.91;100.00
21904;BME280;11116;51.554;7.812;2022-09-09T05:39:58;99980.53;;;16.23;100.00
21904;BME280;11116;51.554;7.812;2022-09-09T05:42:29;99972.25;;;16.18;100.00
21904;BME280;11116;51.554;7.812;2022-09-09T05:44:57;99987.09;;;15.98;100.00
21904;BME280;11116;51.554;7.812;2022-09-09T05:47:24;99976.19;;;16.07;100.00
21904;BME280;11116;51.554;7.812;2022-09-09T05:49:55;99973.22;;;16.25;100.00
21904;BME280;11116;51.554;7.812;2022-09-09T05:52:22;99975.13;;;16.16;100.00
21904;BME280;11116;51.554;7.812;2022-09-09T05:54:51;99975.28;;;16.15;100.00
21904;BME280;11116;51.554;7.812;2022-09-09T05:57:19;99983.72;;;16.04;100.00
21904;BME280;11116;51.554;7.812;2022-09-09T05:59:46;99982.91;;;16.18;100.00
21904;BME280;11116;51.554;7.812;2022-09-09T06:02:13;99975.16;;;16.31;100.00
21904;BME280;11116;51.554;7.812;2022-09-09T06:04:40;99979.91;;;16.21;100.00
21904;BME280;11116;51.554;7.812;2022-09-09T06:07:08;99977.44;;;16.19;100.00
21904;BME280;11116;51.554;7.812;2022-09-09T06:09:35;99978.75;;;16.38;100.00
21904;BME280;11116;51.554;7.812;2022-09-09T06:12:02;99980.09;;;16.19;100.00
21904;BME280;11116;51.554;7.812;2022-09-09T06:14:33;99981.38;;;16.23;100.00
21904;BME280;11116;51.554;7.812;2022-09-09T06:17:01;99985.16;;;16.29;100.00
21904;BME280;11116;51.554;7.812;2022-09-09T06:19:29;99977.03;;;16.45;100.00
21904;BME280;11116;51.554;7.812;2022-09-09T06:21:58;99981.44;;;16.53;100.00
21904;BME280;11116;51.554;7.812;2022-09-09T06:24:28;99976.66;;;16.48;100.00
21904;BME280;11116;51.554;7.812;2022-09-09T06:26:56;99986.47;;;16.33;100.00
21904;BME280;11116;51.554;7.812;2022-09-09T06:29:27;99979.53;;;16.61;100.00
21904;BME280;11116;51.554;7.812;2022-09-09T06:31:54;99990.09;;;16.55;100.00
21904;BME280;11116;51.554;7.812;2022-09-09T06:34:23;99975.22;;;16.60;100.00
21904;BME280;11116;51.554;7.812;2022-09-09T06:36:54;99984.53;;;16.79;100.00
21904;BME280;11116;51.554;7.812;2022-09-09T06:39:23;99985.25;;;16.73;100.00
21904;BME280;11116;51.554;7.812;2022-09-09T06:41:53;99979.19;;;16.79;100.00
21904;BME280;11116;51.554;7.812;2022-09-09T06:44:52;99982.22;;;16.76;100.00
21904;BME280;11116;51.554;7.812;2022-09-09T06:47:42;99969.50;;;16.92;100.00
21904;BME280;11116;51.554;7.812;2022-09-09T06:50:09;99969.44;;;16.86;100.00
21904;BME280;11116;51.554;7.812;2022-09-09T06:52:37;99978.25;;;16.86;100.00
21904;BME280;11116;51.554;7.812;2022-09-09T06:55:05;99989.13;;;16.85;100.00
21904;BME280;11116;51.554;7.812;2022-09-09T06:57:34;99986.09;;;16.88;100.00
21904;BME280;11116;51.554;7.812;2022-09-09T07:00:05;99990.03;;;16.92;100.00
21904;BME280;11116;51.554;7.812;2022-09-09T07:02:33;99994.09;;;16.88;100.00
21904;BME280;11116;51.554;7.812;2022-09-09T07:05:05;99993.81;;;16.83;100.00
21904;BME280;11116;51.554;7.812;2022-09-09T07:07:34;99999.31;;;16.81;100.00
21904;BME280;11116;51.554;7.812;2022-09-09T07:10:01;99999.41;;;16.73;100.00
21904;BME280;11116;51.554;7.812;2022-09-09T07:12:29;100000.06;;;16.75;100.00
21904;BME280;11116;51.554;7.812;2022-09-09T07:15:00;100003.19;;;16.93;100.00
21904;BME280;11116;51.554;7.812;2022-09-09T07:17:27;100002.72;;;16.90;100.00
21904;BME280;11116;51.554;7.812;2022-09-09T07:19:55;100005.13;;;16.85;100.00
21904;BME280;11116;51.554;7.812;2022-09-09T07:22:23;99990.47;;;17.10;99.78
21904;BME280;11116;51.554;7.812;2022-09-09T07:24:51;99993.34;;;17.23;99.24
21904;BME280;11116;51.554;7.812;2022-09-09T07:27:18;99985.03;;;17.18;98.71
21904;BME280;11116;51.554;7.812;2022-09-09T07:29:46;99981.34;;;17.34;97.12
21904;BME280;11116;51.554;7.812;2022-09-09T07:32:15;99992.13;;;17.26;97.56
21904;BME280;11116;51.554;7.812;2022-09-09T07:34:42;99988.78;;;17.38;95.75
21904;BME280;11116;51.554;7.812;2022-09-09T07:37:09;100000.50;;;17.23;96.02
21904;BME280;11116;51.554;7.812;2022-09-09T07:39:39;100012.41;;;17.06;96.69
21904;BME280;11116;51.554;7.812;2022-09-09T07:42:06;100001.25;;;17.02;96.75
21904;BME280;11116;51.554;7.812;2022-09-09T07:44:35;100003.00;;;16.95;96.95
21904;BME280;11116;51.554;7.812;2022-09-09T07:47:09;100008.44;;;17.02;97.55
21904;BME280;11116;51.554;7.812;2022-09-09T07:49:45;100004.41;;;16.91;97.93
21904;BME280;11116;51.554;7.812;2022-09-09T07:52:16;100008.44;;;17.02;97.36
21904;BME280;11116;51.554;7.812;2022-09-09T07:54:48;100004.03;;;17.09;97.33
21904;BME280;11116;51.554;7.812;2022-09-09T07:57:16;100006.84;;;17.22;97.78
21904;BME280;11116;51.554;7.812;2022-09-09T07:59:44;100006.81;;;17.36;97.07
21904;BME280;11116;51.554;7.812;2022-09-09T08:02:12;100001.69;;;17.35;97.17
21904;BME280;11116;51.554;7.812;2022-09-09T08:04:40;100011.63;;;17.56;96.48
21904;BME280;11116;51.554;7.812;2022-09-09T08:07:09;100006.47;;;17.54;95.85
21904;BME280;11116;51.554;7.812;2022-09-09T08:09:45;100015.56;;;17.45;96.79
21904;BME280;11116;51.554;7.812;2022-09-09T08:12:19;100017.53;;;17.22;97.45
21904;BME280;11116;51.554;7.812;2022-09-09T08:14:46;100012.75;;;17.32;97.71
21904;BME280;11116;51.554;7.812;2022-09-09T08:17:15;100011.50;;;17.49;96.49
21904;BME280;11116;51.554;7.812;2022-09-09T08:19:42;100021.13;;;17.29;96.98
21904;BME280;11116;51.554;7.812;2022-09-09T08:22:15;100019.34;;;17.36;96.99
21904;BME280;11116;51.554;7.812;2022-09-09T08:24:43;100017.78;;;17.41;97.37
21904;BME280;11116;51.554;7.812;2022-09-09T08:27:11;100018.31;;;17.66;96.18
21904;BME280;11116;51.554;7.812;2022-09-09T08:29:38;100013.59;;;17.53;94.76
21904;BME280;11116;51.554;7.812;2022-09-09T08:32:05;100006.28;;;17.77;93.64
21904;BME280;11116;51.554;7.812;2022-09-09T08:34:33;100005.03;;;17.73;93.09
21904;BME280;11116;51.554;7.812;2022-09-09T08:37:06;100017.97;;;17.55;93.11
21904;BME280;11116;51.554;7.812;2022-09-09T08:39:38;100019.06;;;17.96;91.62
21904;BME280;11116;51.554;7.812;2022-09-09T08:42:23;100019.34;;;17.86;92.24
21904;BME280;11116;51.554;7.812;2022-09-09T08:45:03;100017.19;;;17.75;91.68
21904;BME280;11116;51.554;7.812;2022-09-09T08:47:45;100015.97;;;17.78;91.45
21904;BME280;11116;51.554;7.812;2022-09-09T08:50:22;100012.94;;;17.81;91.55
21904;BME280;11116;51.554;7.812;2022-09-09T08:53:01;100004.66;;;17.97;90.29
21904;BME280;11116;51.554;7.812;2022-09-09T08:55:40;100015.56;;;18.17;88.54
21904;BME280;11116;51.554;7.812;2022-09-09T08:58:14;100019.03;;;18.59;87.28
21904;BME280;11116;51.554;7.812;2022-09-09T09:03:41;100007.81;;;18.77;85.08
21904;BME280;11116;51.554;7.812;2022-09-09T09:06:22;100015.03;;;18.77;84.32
21904;BME280;11116;51.554;7.812;2022-09-09T09:09:01;100017.31;;;18.52;83.75
21904;BME280;11116;51.554;7.812;2022-09-09T09:11:36;100011.22;;;18.65;83.66
21904;BME280;11116;51.554;7.812;2022-09-09T09:14:09;100016.25;;;18.81;82.28
21904;BME280;11116;51.554;7.812;2022-09-09T09:16:41;100017.44;;;18.99;81.84
21904;BME280;11116;51.554;7.812;2022-09-09T09:19:14;100024.94;;;19.17;81.81
21904;BME280;11116;51.554;7.812;2022-09-09T09:21:45;100013.47;;;19.36;80.88
21904;BME280;11116;51.554;7.812;2022-09-09T09:24:18;100019.91;;;19.42;79.97
21904;BME280;11116;51.554;7.812;2022-09-09T09:26:48;100010.41;;;19.33;79.36
21904;BME280;11116;51.554;7.812;2022-09-09T09:29:17;99999.81;;;19.65;77.93
21904;BME280;11116;51.554;7.812;2022-09-09T09:31:48;100017.53;;;19.60;79.32
21904;BME280;11116;51.554;7.812;2022-09-09T09:34:17;100007.31;;;20.09;78.36
21904;BME280;11116;51.554;7.812;2022-09-09T09:36:52;100012.13;;;20.40;76.90
21904;BME280;11116;51.554;7.812;2022-09-09T09:39:25;100002.59;;;20.77;74.95
21904;BME280;11116;51.554;7.812;2022-09-09T09:41:56;100004.69;;;20.68;73.49
21904;BME280;11116;51.554;7.812;2022-09-09T09:44:28;100000.75;;;20.77;72.55
21904;BME280;11116;51.554;7.812;2022-09-09T09:47:07;100005.31;;;20.57;71.88
21904;BME280;11116;51.554;7.812;2022-09-09T09:49:35;100001.34;;;20.79;71.76
21904;BME280;11116;51.554;7.812;2022-09-09T09:52:03;99993.25;;;21.12;70.57
21904;BME280;11116;51.554;7.812;2022-09-09T09:54:33;99993.91;;;20.95;69.82
21904;BME280;11116;51.554;7.812;2022-09-09T09:57:10;99993.44;;;21.24;69.38
21904;BME280;11116;51.554;7.812;2022-09-09T09:59:39;99994.00;;;21.32;69.06
21904;BME280;11116;51.554;7.812;2022-09-09T10:02:22;99993.91;;;20.95;70.03
21904;BME280;11116;51.554;7.812;2022-09-09T10:05:03;99997.84;;;20.92;70.04
21904;BME280;11116;51.554;7.812;2022-09-09T10:07:32;99982.88;;;21.22;70.39
21904;BME280;11116;51.554;7.812;2022-09-09T10:09:59;99993.09;;;21.45;70.19
21904;BME280;11116;51.554;7.812;2022-09-09T10:12:36;99979.31;;;21.73;68.98
21904;BME280;11116;51.554;7.812;2022-09-09T10:15:19;99987.94;;;20.79;70.30
21904;BME280;11116;51.554;7.812;2022-09-09T10:17:56;99993.94;;;20.55;70.62
21904;BME280;11116;51.554;7.812;2022-09-09T10:20:34;99990.66;;;20.66;70.46
21904;BME280;11116;51.554;7.812;2022-09-09T10:23:11;99982.00;;;21.42;69.92
21904;BME280;11116;51.554;7.812;2022-09-09T10:25:58;99980.88;;;21.56;67.32
21904;BME280;11116;51.554;7.812;2022-09-09T10:28:41;99981.06;;;22.23;66.55
21904;BME280;11116;51.554;7.812;2022-09-09T10:31:24;99978.53;;;22.04;65.87
21904;BME280;11116;51.554;7.812;2022-09-09T10:34:01;99966.78;;;21.98;65.60
21904;BME280;11116;51.554;7.812;2022-09-09T10:36:32;99975.44;;;21.62;67.48
21904;BME280;11116;51.554;7.812;2022-09-09T10:39:03;99972.38;;;22.21;66.65
21904;BME280;11116;51.554;7.812;2022-09-09T10:41:45;99976.59;;;22.17;65.38
21904;BME280;11116;51.554;7.812;2022-09-09T10:44:30;99965.22;;;22.40;65.20
21904;BME280;11116;51.554;7.812;2022-09-09T10:47:21;99966.63;;;21.49;66.25
21904;BME280;11116;51.554;7.812;2022-09-09T10:50:11;99976.47;;;21.23;67.87
21904;BME280;11116;51.554;7.812;2022-09-09T10:52:46;99981.31;;;20.82;69.28
21904;BME280;11116;51.554;7.812;2022-09-09T10:55:19;99983.63;;;20.65;70.54
21904;BME280;11116;51.554;7.812;2022-09-09T10:57:48;99976.81;;;20.63;69.60
21904;BME280;11116;51.554;7.812;2022-09-09T11:00:19;99975.94;;;20.95;68.39
21904;BME280;11116;51.554;7.812;2022-09-09T11:02:48;99956.75;;;21.42;66.76
21904;BME280;11116;51.554;7.812;2022-09-09T11:05:19;99961.66;;;21.83;64.32
21904;BME280;11116;51.554;7.812;2022-09-09T11:07:49;99962.53;;;21.77;63.44
21904;BME280;11116;51.554;7.812;2022-09-09T11:10:28;99954.19;;;21.92;62.88
21904;BME280;11116;51.554;7.812;2022-09-09T11:13:00;99948.41;;;22.63;62.17
21904;BME280;11116;51.554;7.812;2022-09-09T11:15:35;99954.41;;;22.65;61.21
21904;BME280;11116;51.554;7.812;2022-09-09T11:18:06;99956.28;;;22.15;61.89
21904;BME280;11116;51.554;7.812;2022-09-09T11:20:35;99958.16;;;21.45;62.83
21904;BME280;11116;51.554;7.812;2022-09-09T11:23:05;99964.31;;;21.21;63.27
21904;BME280;11116;51.554;7.812;2022-09-09T11:25:39;99964.97;;;20.90;64.33
21904;BME280;11116;51.554;7.812;2022-09-09T11:28:17;99970.34;;;20.97;64.57
21904;BME280;11116;51.554;7.812;2022-09-09T11:30:59;99965.84;;;20.77;65.66
21904;BME280;11116;51.554;7.812;2022-09-09T11:33:46;99977.66;;;20.50;66.69
21904;BME280;11116;51.554;7.812;2022-09-09T11:36:54;99982.00;;;20.32;67.86
21904;BME280;11116;51.554;7.812;2022-09-09T11:42:18;100012.50;;;20.17;70.86
21904;BME280;11116;51.554;7.812;2022-09-09T11:44:45;100016.50;;;19.61;72.82
21904;BME280;11116;51.554;7.812;2022-09-09T11:47:21;100008.97;;;19.37;74.01
21904;BME280;11116;51.554;7.812;2022-09-09T11:49:50;100000.09;;;19.36;74.96
21904;BME280;11116;51.554;7.812;2022-09-09T11:52:22;100001.03;;;19.56;75.44
21904;BME280;11116;51.554;7.812;2022-09-09T11:54:51;99996.84;;;20.41;75.07
21904;BME280;11116;51.554;7.812;2022-09-09T11:57:25;99975.97;;;21.46;72.32
21904;BME280;11116;51.554;7.812;2022-09-09T11:59:54;99975.09;;;21.52;70.40
21904;BME280;11116;51.554;7.812;2022-09-09T12:02:25;99968.72;;;21.84;68.64
21904;BME280;11116;51.554;7.812;2022-09-09T12:04:59;99958.53;;;21.93;67.88
21904;BME280;11116;51.554;7.812;2022-09-09T12:07:33;99958.00;;;22.09;67.53
21904;BME280;11116;51.554;7.812;2022-09-09T12:10:04;99953.38;;;21.91;64.71
21904;BME280;11116;51.554;7.812;2022-09-09T12:12:33;99950.34;;;21.75;64.88
21904;BME280;11116;51.554;7.812;2022-09-09T12:15:18;99949.44;;;21.94;64.21
21904;BME280;11116;51.554;7.812;2022-09-09T12:17:48;99950.03;;;22.21;63.44
21904;BME280;11116;51.554;7.812;2022-09-09T12:20:19;99954.22;;;22.17;62.78
21904;BME280;11116;51.554;7.812;2022-09-09T12:25:55;99965.06;;;21.28;66.04
21904;BME280;11116;51.554;7.812;2022-09-09T12:28:27;99954.59;;;21.95;64.49
21904;BME280;11116;51.554;7.812;2022-09-09T12:31:04;99962.09;;;22.12;64.63
21904;BME280;11116;51.554;7.812;2022-09-09T12:33:36;99954.75;;;22.50;63.92
21904;BME280;11116;51.554;7.812;2022-09-09T12:36:04;99954.06;;;22.36;62.34
21904;BME280;11116;51.554;7.812;2022-09-09T12:38:34;99958.44;;;22.31;62.09
21904;BME280;11116;51.554;7.812;2022-09-09T12:41:03;99948.06;;;21.78;62.25
21904;BME280;11116;51.554;7.812;2022-09-09T12:43:30;99949.16;;;21.33;63.40
21904;BME280;11116;51.554;7.812;2022-09-09T12:45:59;99947.06;;;21.73;63.20
21904;BME280;11116;51.554;7.812;2022-09-09T12:48:31;99940.19;;;21.77;62.75
21904;BME280;11116;51.554;7.812;2022-09-09T12:51:01;99938.22;;;21.97;61.60
21904;BME280;11116;51.554;7.812;2022-09-09T12:53:31;99941.59;;;21.86;62.62
21904;BME280;11116;51.554;7.812;2022-09-09T12:56:01;99945.81;;;21.75;62.19
21904;BME280;11116;51.554;7.812;2022-09-09T12:58:30;99941.41;;;21.87;62.15
21904;BME280;11116;51.554;7.812;2022-09-09T13:00:59;99943.78;;;21.71;62.61
21904;BME280;11116;51.554;7.812;2022-09-09T13:03:28;99944.44;;;21.60;62.85
21904;BME280;11116;51.554;7.812;2022-09-09T13:05:58;99940.56;;;21.56;63.41
21904;BME280;11116;51.554;7.812;2022-09-09T13:08:27;99945.69;;;21.64;63.54
21904;BME280;11116;51.554;7.812;2022-09-09T13:10:57;99940.28;;;21.32;63.54
21904;BME280;11116;51.554;7.812;2022-09-09T13:13:27;99942.22;;;21.12;63.29
21904;BME280;11116;51.554;7.812;2022-09-09T13:15:56;99964.19;;;20.70;67.60
21904;BME280;11116;51.554;7.812;2022-09-09T13:18:27;99955.78;;;20.60;68.36
21904;BME280;11116;51.554;7.812;2022-09-09T13:20:56;99952.25;;;20.46;69.87
21904;BME280;11116;51.554;7.812;2022-09-09T13:23:29;99946.63;;;20.80;68.94
21904;BME280;11116;51.554;7.812;2022-09-09T13:25:58;99941.28;;;21.38;67.71